createdAt,value
2023-03-30T00:01:06.251Z,100274.19
2023-03-30T00:03:34.537Z,100275.91
2023-03-30T00:06:03.644Z,100272.78
2023-03-30T00:08:31.119Z,100273.63
2023-03-30T00:11:12.037Z,100270.34
2023-03-30T00:13:39.486Z,100266.72
2023-03-30T00:16:09.102Z,100270.63
2023-03-30T00:18:37.266Z,100271.16
2023-03-30T00:21:05.570Z,100260.16
2023-03-30T00:23:33.511Z,100255.75
2023-03-30T00:26:00.880Z,100260.84
2023-03-30T00:28:30.829Z,100260.31
2023-03-30T00:30:58.879Z,100253.41
2023-03-30T00:33:41.550Z,100253.16
2023-03-30T00:36:12.451Z,100251.91
2023-03-30T00:38:40.711Z,100255.09
2023-03-30T00:41:09.206Z,100245.13
2023-03-30T00:43:58.503Z,100247.22
2023-03-30T00:46:26.092Z,100247.50
2023-03-30T00:48:57.741Z,100237.13
2023-03-30T00:51:26.485Z,100237.25
2023-03-30T00:53:55.952Z,100237.72
2023-03-30T00:56:27.100Z,100224.53
2023-03-30T00:58:55.506Z,100227.09
2023-03-30T01:01:28.596Z,100221.91
2023-03-30T01:04:03.731Z,100211.88
2023-03-30T01:06:31.687Z,100223.09
2023-03-30T01:08:59.366Z,100222.66
2023-03-30T01:11:26.841Z,100210.72
2023-03-30T01:13:58.414Z,100217.69
2023-03-30T01:16:47.345Z,100193.28
2023-03-30T01:19:45.330Z,100191.91
2023-03-30T01:22:32.342Z,100177.59
2023-03-30T01:25:18.473Z,100185.66
2023-03-30T01:27:49.728Z,100188.16
2023-03-30T01:30:20.273Z,100179.69
2023-03-30T01:32:56.973Z,100175.41
2023-03-30T01:35:49.607Z,100172.28
2023-03-30T01:38:26.342Z,100184.53
2023-03-30T01:41:09.854Z,100170.06
2023-03-30T01:43:53.729Z,100177.47
2023-03-30T01:46:26.711Z,100178.03
2023-03-30T01:49:03.372Z,100174.03
2023-03-30T01:51:33.872Z,100172.72
2023-03-30T01:54:12.662Z,100173.66
2023-03-30T01:56:57.330Z,100186.50
2023-03-30T01:59:27.063Z,100181.56
2023-03-30T02:02:00.489Z,100176.84
2023-03-30T02:04:28.436Z,100168.59
2023-03-30T02:06:59.601Z,100163.94
2023-03-30T02:09:26.956Z,100173.47
2023-03-30T02:11:55.455Z,100171.63
2023-03-30T02:14:31.040Z,100164.91
2023-03-30T02:17:12.108Z,100160.34
2023-03-30T02:19:39.787Z,100156.47
2023-03-30T02:22:08.684Z,100149.28
2023-03-30T02:24:36.138Z,100138.00
2023-03-30T02:27:03.886Z,100138.19
2023-03-30T02:29:31.695Z,100140.66
2023-03-30T02:32:01.028Z,100146.97
2023-03-30T02:34:47.128Z,100152.19
2023-03-30T02:37:18.266Z,100151.12
2023-03-30T02:40:13.350Z,100144.91
2023-03-30T02:43:00.133Z,100156.72
2023-03-30T02:45:42.849Z,100157.19
2023-03-30T02:48:20.988Z,100150.72
2023-03-30T02:50:57.945Z,100143.59
2023-03-30T02:53:53.540Z,100148.53
2023-03-30T02:56:44.569Z,100155.78
2023-03-30T02:59:14.006Z,100148.00
2023-03-30T03:02:02.150Z,100153.38
2023-03-30T03:04:29.883Z,100160.28
2023-03-30T03:06:59.136Z,100162.69
2023-03-30T03:09:26.783Z,100157.84
2023-03-30T03:11:54.168Z,100152.91
2023-03-30T03:14:26.573Z,100148.87
2023-03-30T03:16:54.894Z,100152.69
2023-03-30T03:19:23.328Z,100158.63
2023-03-30T03:21:51.721Z,100159.97
2023-03-30T03:24:19.397Z,100163.59
2023-03-30T03:26:47.327Z,100160.44
2023-03-30T03:29:15.171Z,100162.91
2023-03-30T03:31:42.543Z,100161.75
2023-03-30T03:34:10.229Z,100161.16
2023-03-30T03:36:40.983Z,100166.31
2023-03-30T03:39:08.416Z,100167.34
2023-03-30T03:41:36.212Z,100171.38
2023-03-30T03:44:03.573Z,100174.56
2023-03-30T03:46:31.209Z,100166.81
2023-03-30T03:48:58.964Z,100168.59
2023-03-30T03:51:26.310Z,100161.72
2023-03-30T03:53:53.918Z,100161.56
2023-03-30T03:56:21.900Z,100161.72
2023-03-30T03:58:49.247Z,100150.66
2023-03-30T04:01:16.687Z,100145.50
2023-03-30T04:03:44.389Z,100138.00
2023-03-30T04:06:11.849Z,100133.22
2023-03-30T04:08:39.553Z,100129.50
2023-03-30T04:11:12.158Z,100127.09
2023-03-30T04:13:40.353Z,100131.31
2023-03-30T04:16:08.547Z,100126.72
2023-03-30T04:18:36.288Z,100121.34
2023-03-30T04:21:05.518Z,100117.03
2023-03-30T04:23:34.358Z,100123.34
2023-03-30T04:26:06.375Z,100124.38
2023-03-30T04:28:35.267Z,100128.91
2023-03-30T04:31:04.407Z,100140.50
2023-03-30T04:33:38.021Z,100138.53
2023-03-30T04:36:06.070Z,100133.75
2023-03-30T04:38:36.532Z,100134.50
2023-03-30T04:41:05.694Z,100131.06
2023-03-30T04:43:33.810Z,100127.31
2023-03-30T04:46:01.777Z,100122.88
2023-03-30T04:48:29.717Z,100115.78
2023-03-30T04:50:58.181Z,100112.81
2023-03-30T04:53:26.026Z,100114.06
2023-03-30T04:55:54.385Z,100107.09
2023-03-30T04:58:22.098Z,100095.88
2023-03-30T05:00:49.743Z,100094.63
2023-03-30T05:03:18.467Z,100100.53
2023-03-30T05:05:47.494Z,100100.59
2023-03-30T05:08:15.106Z,100096.47
2023-03-30T05:10:43.544Z,100102.25
2023-03-30T05:13:11.484Z,100109.13
2023-03-30T05:15:39.804Z,100100.06
2023-03-30T05:18:08.135Z,100097.84
2023-03-30T05:20:36.293Z,100104.28
2023-03-30T05:23:04.179Z,100104.94
2023-03-30T05:25:32.130Z,100105.56
2023-03-30T05:27:59.871Z,100109.72
2023-03-30T05:30:27.830Z,100110.03
2023-03-30T05:32:55.659Z,100105.88
2023-03-30T05:35:26.086Z,100101.50
2023-03-30T05:37:55.611Z,100102.97
2023-03-30T05:40:23.874Z,100098.31
2023-03-30T05:42:51.652Z,100090.66
2023-03-30T05:45:20.376Z,100086.75
2023-03-30T05:47:49.007Z,100088.56
2023-03-30T05:50:17.029Z,100088.47
2023-03-30T05:52:44.615Z,100093.28
2023-03-30T05:55:12.500Z,100108.53
2023-03-30T05:57:40.184Z,100102.59
2023-03-30T06:00:10.161Z,100099.56
2023-03-30T06:02:40.102Z,100097.91
2023-03-30T06:05:09.225Z,100099.66
2023-03-30T06:07:37.557Z,100084.47
2023-03-30T06:10:06.564Z,100080.53
2023-03-30T06:12:35.321Z,100075.41
2023-03-30T06:15:03.440Z,100081.97
2023-03-30T06:17:31.543Z,100070.09
2023-03-30T06:19:59.290Z,100070.87
2023-03-30T06:22:28.042Z,100068.88
2023-03-30T06:24:57.233Z,100064.37
2023-03-30T06:27:24.915Z,100061.72
2023-03-30T06:29:53.139Z,100056.91
2023-03-30T06:32:21.108Z,100050.84
2023-03-30T06:34:50.386Z,100045.84
2023-03-30T06:37:23.045Z,100041.09
2023-03-30T06:39:50.841Z,100046.94
2023-03-30T06:42:18.304Z,100048.88
2023-03-30T06:44:49.348Z,100049.56
2023-03-30T06:47:19.434Z,100049.12
2023-03-30T06:49:47.060Z,100040.75
2023-03-30T06:52:15.799Z,100049.84
2023-03-30T06:54:43.629Z,100054.16
2023-03-30T06:57:11.049Z,100048.03
2023-03-30T06:59:39.568Z,100051.19
2023-03-30T07:02:14.675Z,100057.91
2023-03-30T07:04:46.907Z,100062.78
2023-03-30T07:07:15.250Z,100070.81
2023-03-30T07:09:42.950Z,100071.84
2023-03-30T07:12:10.654Z,100072.91
2023-03-30T07:14:38.327Z,100072.66
2023-03-30T07:17:07.945Z,100065.53
2023-03-30T07:19:36.594Z,100063.06
2023-03-30T07:22:04.258Z,100059.38
2023-03-30T07:24:33.647Z,100060.53
2023-03-30T07:27:01.147Z,100070.25
2023-03-30T07:29:29.331Z,100060.87
2023-03-30T07:31:57.395Z,100053.16
2023-03-30T07:34:25.243Z,100059.78
2023-03-30T07:36:54.678Z,100056.12
2023-03-30T07:39:22.870Z,100045.62
2023-03-30T07:41:50.814Z,100044.00
2023-03-30T07:44:18.870Z,100042.31
2023-03-30T07:46:46.458Z,100038.19
2023-03-30T07:49:14.605Z,100043.34
2023-03-30T07:51:42.364Z,100041.88
2023-03-30T07:54:10.444Z,100060.50
2023-03-30T07:56:39.714Z,100060.91
2023-03-30T07:59:08.179Z,100053.41
2023-03-30T08:01:36.157Z,100042.34
2023-03-30T08:04:04.278Z,100040.34
2023-03-30T08:06:33.193Z,100025.12
2023-03-30T08:09:01.361Z,100026.53
2023-03-30T08:11:29.061Z,100027.22
2023-03-30T08:13:57.522Z,100031.78
2023-03-30T08:16:25.030Z,100025.94
2023-03-30T08:18:55.344Z,100021.56
2023-03-30T08:21:25.570Z,100018.28
2023-03-30T08:23:55.094Z,100023.37
2023-03-30T08:26:22.420Z,100022.84
2023-03-30T08:28:49.960Z,100027.75
2023-03-30T08:31:18.367Z,100020.34
2023-03-30T08:33:45.918Z,100024.06
2023-03-30T08:36:13.917Z,100029.59
2023-03-30T08:38:41.676Z,100021.97
2023-03-30T08:41:30.106Z,100021.03
2023-03-30T08:43:57.780Z,100029.94
2023-03-30T08:46:25.425Z,100034.88
2023-03-30T08:48:52.858Z,100027.47
2023-03-30T08:51:31.520Z,100017.19
2023-03-30T08:54:06.135Z,100022.59
2023-03-30T08:56:35.759Z,100021.38
2023-03-30T08:59:40.288Z,100023.66
2023-03-30T09:02:23.462Z,100019.81
2023-03-30T09:05:04.766Z,100003.97
2023-03-30T09:07:45.370Z,100012.63
2023-03-30T09:10:13.972Z,100008.91
2023-03-30T09:12:50.522Z,100002.69
2023-03-30T09:15:19.967Z,100000.22
2023-03-30T09:17:51.373Z,99996.47
2023-03-30T09:20:22.157Z,99997.16
2023-03-30T09:22:50.242Z,99986.50
2023-03-30T09:25:26.362Z,99982.25
2023-03-30T09:28:17.156Z,99981.22
2023-03-30T09:30:59.151Z,99979.28
2023-03-30T09:33:35.948Z,99969.66
2023-03-30T09:36:21.381Z,99966.31
2023-03-30T09:38:49.340Z,99960.53
2023-03-30T09:41:21.847Z,99961.63
2023-03-30T09:43:49.679Z,99955.34
2023-03-30T09:46:17.264Z,99945.47
2023-03-30T09:48:48.377Z,99952.38
2023-03-30T09:51:24.224Z,99944.66
2023-03-30T09:53:54.019Z,99939.69
2023-03-30T09:56:28.546Z,99944.47
2023-03-30T09:58:56.261Z,99934.34
2023-03-30T10:01:24.257Z,99950.06
2023-03-30T10:04:11.645Z,99934.66
2023-03-30T10:06:48.928Z,99921.56
2023-03-30T10:09:18.046Z,99931.13
2023-03-30T10:11:47.911Z,99931.69
2023-03-30T10:14:35.598Z,99926.47
2023-03-30T10:17:04.153Z,99934.25
2023-03-30T10:19:36.202Z,99929.84
2023-03-30T10:22:06.729Z,99916.00
2023-03-30T10:24:34.117Z,99925.72
2023-03-30T10:27:07.479Z,99919.13
2023-03-30T10:29:35.330Z,99904.09
2023-03-30T10:32:27.505Z,99895.91
2023-03-30T10:34:56.502Z,99890.41
2023-03-30T10:37:34.210Z,99883.41
2023-03-30T10:40:05.558Z,99878.94
2023-03-30T10:42:33.005Z,99877.28
2023-03-30T10:45:05.676Z,99880.50
2023-03-30T10:48:00.151Z,99866.03
2023-03-30T10:51:06.760Z,99873.13
2023-03-30T10:53:56.882Z,99874.31
2023-03-30T10:57:03.999Z,99867.62
2023-03-30T11:00:00.209Z,99859.41
2023-03-30T11:02:43.964Z,99854.09
2023-03-30T11:05:17.571Z,99853.66
2023-03-30T11:07:50.094Z,99847.63
2023-03-30T11:10:20.589Z,99855.13
2023-03-30T11:12:52.406Z,99860.53
2023-03-30T11:15:27.169Z,99858.75
2023-03-30T11:18:02.402Z,99858.34
2023-03-30T11:20:35.916Z,99859.62
2023-03-30T11:23:11.817Z,99852.97
2023-03-30T11:25:51.908Z,99849.91
2023-03-30T11:28:25.978Z,99841.37
2023-03-30T11:30:54.791Z,99837.03
2023-03-30T11:33:36.659Z,99831.09
2023-03-30T11:36:18.695Z,99821.88
2023-03-30T11:39:07.071Z,99819.75
2023-03-30T11:41:48.817Z,99820.81
2023-03-30T11:44:16.577Z,99819.31
2023-03-30T11:47:00.472Z,99825.91
2023-03-30T11:49:37.018Z,99821.53
2023-03-30T11:52:26.447Z,99826.78
2023-03-30T11:55:42.499Z,99797.72
2023-03-30T11:58:20.268Z,99796.13
2023-03-30T12:00:59.845Z,99796.03
2023-03-30T12:03:33.553Z,99789.66
2023-03-30T12:06:23.880Z,99794.00
2023-03-30T12:09:07.268Z,99786.59
2023-03-30T12:12:07.758Z,99793.88
2023-03-30T12:15:12.688Z,99782.06
2023-03-30T12:18:08.330Z,99772.91
2023-03-30T12:20:44.477Z,99765.16
2023-03-30T12:23:35.130Z,99759.53
2023-03-30T12:26:10.328Z,99752.78
2023-03-30T12:31:17.668Z,99735.53
2023-03-30T12:33:51.063Z,99729.66
2023-03-30T12:37:13.181Z,99733.28
2023-03-30T12:39:53.631Z,99736.34
2023-03-30T12:42:34.908Z,99715.66
2023-03-30T12:45:23.802Z,99725.44
2023-03-30T12:48:24.646Z,99724.34
2023-03-30T12:51:22.028Z,99715.34
2023-03-30T12:54:14.512Z,99706.06
2023-03-30T12:57:10.081Z,99705.25
2023-03-30T12:59:53.345Z,99698.69
2023-03-30T13:02:51.951Z,99697.16
2023-03-30T13:05:31.770Z,99689.50
2023-03-30T13:08:03.705Z,99685.03
2023-03-30T13:10:31.752Z,99681.56
2023-03-30T13:13:00.118Z,99676.00
2023-03-30T13:15:40.591Z,99680.59
2023-03-30T13:18:08.054Z,99682.22
2023-03-30T13:20:55.732Z,99678.47
2023-03-30T13:23:23.345Z,99669.22
2023-03-30T13:26:05.661Z,99674.38
2023-03-30T13:28:55.965Z,99658.50
2023-03-30T13:31:41.689Z,99662.41
2023-03-30T13:34:22.170Z,99666.03
2023-03-30T13:37:16.544Z,99672.87
2023-03-30T13:40:11.015Z,99670.09
2023-03-30T13:42:50.772Z,99659.41
2023-03-30T13:45:40.882Z,99663.66
2023-03-30T13:48:10.850Z,99661.66
2023-03-30T13:50:38.743Z,99656.91
2023-03-30T13:53:09.911Z,99657.53
2023-03-30T13:55:39.163Z,99652.31
2023-03-30T13:58:14.740Z,99645.81
2023-03-30T14:00:49.034Z,99641.91
2023-03-30T14:03:29.776Z,99626.94
2023-03-30T14:06:02.788Z,99626.47
2023-03-30T14:08:35.735Z,99618.84
2023-03-30T14:11:05.443Z,99623.28
2023-03-30T14:13:33.689Z,99619.87
2023-03-30T14:16:01.086Z,99613.13
2023-03-30T14:18:28.524Z,99614.72
2023-03-30T14:20:57.502Z,99600.81
2023-03-30T14:23:36.597Z,99599.25
2023-03-30T14:26:06.564Z,99593.97
2023-03-30T14:28:35.540Z,99580.06
2023-03-30T14:31:05.014Z,99578.75
2023-03-30T14:33:33.022Z,99569.72
2023-03-30T14:36:00.555Z,99557.66
2023-03-30T14:38:43.779Z,99555.53
2023-03-30T14:41:24.681Z,99540.66
2023-03-30T14:44:04.969Z,99536.19
2023-03-30T14:46:49.371Z,99540.91
2023-03-30T14:49:18.456Z,99525.56
2023-03-30T14:51:47.452Z,99515.25
2023-03-30T14:54:21.967Z,99518.06
2023-03-30T14:56:57.834Z,99518.66
2023-03-30T14:59:26.419Z,99521.97
2023-03-30T15:01:54.788Z,99515.47
2023-03-30T15:04:24.342Z,99510.22
2023-03-30T15:06:52.600Z,99519.31
2023-03-30T15:09:22.080Z,99512.97
2023-03-30T15:11:53.396Z,99507.56
2023-03-30T15:14:22.327Z,99503.41
2023-03-30T15:16:53.650Z,99493.09
2023-03-30T15:19:29.708Z,99487.59
2023-03-30T15:22:00.021Z,99489.31
2023-03-30T15:24:32.852Z,99489.84
2023-03-30T15:27:02.393Z,99485.69
2023-03-30T15:29:30.024Z,99488.19
2023-03-30T15:32:07.626Z,99496.75
2023-03-30T15:34:35.229Z,99499.34
2023-03-30T15:37:02.599Z,99504.94
2023-03-30T15:39:34.381Z,99517.00
2023-03-30T15:42:07.721Z,99525.16
2023-03-30T15:44:38.929Z,99530.16
2023-03-30T15:47:18.304Z,99541.56
2023-03-30T15:49:47.870Z,99554.28
2023-03-30T15:52:26.740Z,99559.44
2023-03-30T15:54:55.309Z,99551.63
2023-03-30T15:57:32.475Z,99556.53
2023-03-30T16:00:01.826Z,99543.97
2023-03-30T16:02:32.256Z,99532.78
2023-03-30T16:05:03.889Z,99540.19
2023-03-30T16:07:31.429Z,99532.59
2023-03-30T16:09:58.867Z,99531.50
2023-03-30T16:12:28.890Z,99519.19
2023-03-30T16:14:56.368Z,99515.91
2023-03-30T16:17:23.729Z,99510.97
2023-03-30T16:19:51.365Z,99497.78
2023-03-30T16:22:18.721Z,99488.78
2023-03-30T16:24:47.637Z,99490.03
2023-03-30T16:27:15.398Z,99485.09
2023-03-30T16:29:43.451Z,99497.66
2023-03-30T16:32:10.926Z,99502.78
2023-03-30T16:34:39.364Z,99503.38
2023-03-30T16:37:08.939Z,99500.53
2023-03-30T16:39:36.625Z,99495.59
2023-03-30T16:42:04.282Z,99499.84
2023-03-30T16:44:31.605Z,99490.37
2023-03-30T16:46:59.008Z,99493.88
2023-03-30T16:49:26.667Z,99502.12
2023-03-30T16:51:57.588Z,99504.19
2023-03-30T16:54:31.128Z,99507.78
2023-03-30T16:57:00.352Z,99505.19
2023-03-30T16:59:30.198Z,99514.31
2023-03-30T17:01:57.880Z,99518.50
2023-03-30T17:04:25.952Z,99509.47
2023-03-30T17:06:56.267Z,99507.78
2023-03-30T17:09:23.845Z,99505.53
2023-03-30T17:11:51.665Z,99503.91
2023-03-30T17:14:20.756Z,99502.06
2023-03-30T17:16:48.217Z,99504.50
2023-03-30T17:19:15.928Z,99502.44
2023-03-30T17:21:43.877Z,99500.38
2023-03-30T17:24:12.834Z,99499.78
2023-03-30T17:26:41.312Z,99497.34
2023-03-30T17:29:09.692Z,99492.56
2023-03-30T17:31:38.398Z,99487.62
2023-03-30T17:34:07.076Z,99489.28
2023-03-30T17:36:34.445Z,99482.91
2023-03-30T17:39:05.159Z,99474.63
2023-03-30T17:41:36.183Z,99479.41
2023-03-30T17:44:03.568Z,99470.13
2023-03-30T17:46:30.957Z,99471.84
2023-03-30T17:48:59.889Z,99473.72
2023-03-30T17:51:27.243Z,99471.41
2023-03-30T17:53:54.618Z,99469.97
2023-03-30T17:56:22.343Z,99470.22
2023-03-30T17:58:49.810Z,99469.38
2023-03-30T18:01:17.259Z,99474.75
2023-03-30T18:03:45.095Z,99478.25
2023-03-30T18:06:13.151Z,99488.56
2023-03-30T18:08:40.684Z,99492.25
2023-03-30T18:11:08.487Z,99488.97
2023-03-30T18:13:36.972Z,99492.47
2023-03-30T18:16:04.552Z,99488.97
2023-03-30T18:18:32.364Z,99489.19
2023-03-30T18:21:02.860Z,99504.59
2023-03-30T18:23:31.496Z,99520.87
2023-03-30T18:25:59.184Z,99540.22
2023-03-30T18:28:27.084Z,99572.69
2023-03-30T18:30:57.267Z,99580.75
2023-03-30T18:33:25.199Z,99570.66
2023-03-30T18:35:52.998Z,99560.34
2023-03-30T18:38:21.229Z,99557.66
2023-03-30T18:40:50.180Z,99550.25
2023-03-30T18:43:17.972Z,99546.59
2023-03-30T18:45:46.384Z,99553.19
2023-03-30T18:48:16.116Z,99539.19
2023-03-30T18:50:44.548Z,99529.94
2023-03-30T18:53:13.659Z,99532.56
2023-03-30T18:55:43.224Z,99528.47
2023-03-30T18:58:15.506Z,99525.91
2023-03-30T19:00:43.146Z,99519.25
2023-03-30T19:03:11.184Z,99500.44
2023-03-30T19:05:39.698Z,99482.59
2023-03-30T19:08:10.655Z,99469.03
2023-03-30T19:10:38.657Z,99456.47
2023-03-30T19:13:06.088Z,99444.97
2023-03-30T19:15:35.100Z,99478.28
2023-03-30T19:18:03.092Z,99472.81
2023-03-30T19:20:31.942Z,99470.38
2023-03-30T19:22:59.534Z,99473.75
2023-03-30T19:25:27.482Z,99481.75
2023-03-30T19:28:03.263Z,99486.84
2023-03-30T19:30:33.613Z,99473.94
2023-03-30T19:33:03.893Z,99469.81
2023-03-30T19:35:31.764Z,99456.66
2023-03-30T19:37:59.177Z,99460.94
2023-03-30T19:40:26.594Z,99472.81
2023-03-30T19:42:54.263Z,99489.72
2023-03-30T19:45:21.756Z,99490.94
2023-03-30T19:47:49.159Z,99490.72
2023-03-30T19:50:18.437Z,99489.56
2023-03-30T19:52:48.581Z,99492.13
2023-03-30T19:55:16.767Z,99486.41
2023-03-30T19:57:44.494Z,99492.41
2023-03-30T20:00:12.818Z,99489.31
2023-03-30T20:02:41.120Z,99474.72
2023-03-30T20:05:15.837Z,99474.78
2023-03-30T20:07:44.488Z,99481.44
2023-03-30T20:10:16.640Z,99482.09
2023-03-30T20:12:44.321Z,99479.62
2023-03-30T20:15:11.761Z,99470.00
2023-03-30T20:17:39.312Z,99469.56
2023-03-30T20:20:09.012Z,99466.16
2023-03-30T20:22:37.242Z,99466.50
2023-03-30T20:25:07.381Z,99462.97
2023-03-30T20:27:35.581Z,99466.47
2023-03-30T20:30:03.439Z,99469.16
2023-03-30T20:32:31.011Z,99462.66
2023-03-30T20:34:58.696Z,99459.72
2023-03-30T20:37:26.038Z,99461.72
2023-03-30T20:39:53.412Z,99468.84
2023-03-30T20:42:26.167Z,99461.84
2023-03-30T20:44:54.290Z,99460.75
2023-03-30T20:47:26.082Z,99458.91
2023-03-30T20:49:56.619Z,99455.00
2023-03-30T20:52:24.215Z,99446.63
2023-03-30T20:54:52.628Z,99439.81
2023-03-30T20:57:20.616Z,99444.13
2023-03-30T20:59:49.029Z,99449.34
2023-03-30T21:02:16.510Z,99443.19
2023-03-30T21:04:44.674Z,99440.12
2023-03-30T21:07:12.629Z,99434.19
2023-03-30T21:09:39.988Z,99439.31
2023-03-30T21:12:08.326Z,99425.12
2023-03-30T21:14:35.984Z,99409.09
2023-03-30T21:17:03.414Z,99418.75
2023-03-30T21:19:30.833Z,99423.69
2023-03-30T21:22:00.250Z,99414.66
2023-03-30T21:24:28.085Z,99408.47
2023-03-30T21:26:55.478Z,99410.59
2023-03-30T21:29:23.236Z,99400.69
2023-03-30T21:31:50.716Z,99385.56
2023-03-30T21:34:18.846Z,99385.53
2023-03-30T21:36:46.753Z,99366.69
2023-03-30T21:39:14.197Z,99369.50
2023-03-30T21:41:41.669Z,99399.56
2023-03-30T21:44:09.332Z,99418.38
2023-03-30T21:46:36.797Z,99438.69
2023-03-30T21:49:04.176Z,99441.12
2023-03-30T21:51:31.981Z,99445.66
2023-03-30T21:53:59.491Z,99443.47
2023-03-30T21:56:28.979Z,99440.62
2023-03-30T21:58:57.411Z,99446.72
2023-03-30T22:01:24.920Z,99457.06
2023-03-30T22:03:53.511Z,99453.69
2023-03-30T22:06:21.154Z,99448.56
2023-03-30T22:08:48.490Z,99445.75
2023-03-30T22:11:18.042Z,99453.03
2023-03-30T22:13:47.607Z,99450.72
2023-03-30T22:16:16.881Z,99446.56
2023-03-30T22:18:44.462Z,99448.31
2023-03-30T22:21:13.405Z,99448.75
2023-03-30T22:23:41.242Z,99444.03
2023-03-30T22:26:08.753Z,99454.03
2023-03-30T22:28:36.122Z,99448.22
2023-03-30T22:31:10.839Z,99445.09
2023-03-30T22:33:38.325Z,99454.13
2023-03-30T22:36:07.175Z,99440.69
2023-03-30T22:38:34.954Z,99429.56
2023-03-30T22:41:06.505Z,99429.37
2023-03-30T22:43:35.795Z,99442.78
2023-03-30T22:46:04.671Z,99453.41
2023-03-30T22:48:32.428Z,99452.03
2023-03-30T22:51:03.769Z,99438.94
2023-03-30T22:53:31.731Z,99433.25
2023-03-30T22:55:59.118Z,99421.75
2023-03-30T22:58:26.792Z,99412.13
2023-03-30T23:00:59.871Z,99418.38
2023-03-30T23:03:27.706Z,99417.06
2023-03-30T23:05:55.885Z,99416.81
2023-03-30T23:08:23.993Z,99421.19
2023-03-30T23:10:51.864Z,99425.28
2023-03-30T23:13:19.199Z,99423.88
2023-03-30T23:15:48.626Z,99424.66
2023-03-30T23:18:16.549Z,99416.91
2023-03-30T23:20:46.671Z,99419.72
2023-03-30T23:23:14.435Z,99415.78
2023-03-30T23:25:51.597Z,99411.47
2023-03-30T23:28:19.098Z,99419.91
2023-03-30T23:30:46.770Z,99419.38
2023-03-30T23:33:14.119Z,99425.66
2023-03-30T23:35:48.496Z,99407.72
2023-03-30T23:38:17.039Z,99401.72
2023-03-30T23:40:44.486Z,99413.03
2023-03-30T23:43:11.846Z,99418.38
2023-03-30T23:45:39.574Z,99426.97
2023-03-30T23:48:07.231Z,99422.69
2023-03-30T23:50:36.596Z,99416.13
2023-03-30T23:53:04.262Z,99418.16
2023-03-30T23:55:33.634Z,99408.59
2023-03-30T23:58:01.328Z,99411.25
